Time;durP1;ratioP1;P1;durP2;ratioP2;P2;SDS_P1;SDS_P2;PMS_P1;PMS_P2;Temp;Humidity;BMP_temperature;BMP_pressure;BME280_temperature;BME280_humidity;BME280_pressure;Samples;Min_cycle;Max_cycle;Signal;HPM_P1;HPM_P2
2022/10/24 00:00:41;;;;;;;6.37;5.30;;;;;;;10.85;100.00;97731.81;6280700;28;20230;-39
2022/10/24 00:03:44;;;;;;;5.43;4.93;;;;;;;10.84;100.00;97734.56;6262147;28;20731;-39
2022/10/24 00:06:46;;;;;;;8.60;6.90;;;;;;;10.82;100.00;97737.34;6281390;28;20294;-39
2022/10/24 00:09:48;;;;;;;6.70;5.67;;;;;;;10.78;100.00;97733.25;6281177;28;20529;-39
2022/10/24 00:12:50;;;;;;;9.33;7.93;;;;;;;10.78;100.00;97737.72;6280021;28;20737;-39
2022/10/24 00:15:52;;;;;;;7.33;6.63;;;;;;;10.72;100.00;97728.47;6281079;28;20230;-39
2022/10/24 00:18:54;;;;;;;9.43;7.30;;;;;;;10.69;100.00;97723.44;6280138;28;20238;-39
2022/10/24 00:21:56;;;;;;;6.87;6.20;;;;;;;10.65;100.00;97720.22;6280319;28;20603;-39
2022/10/24 00:24:58;;;;;;;8.57;7.43;;;;;;;10.62;100.00;97735.44;6280449;28;20719;-39
2022/10/24 00:28:00;;;;;;;8.40;7.60;;;;;;;10.58;100.00;97734.84;6279955;28;20711;-39
2022/10/24 00:31:04;;;;;;;8.13;7.23;;;;;;;10.54;100.00;97729.94;6280021;28;20724;-39
2022/10/24 00:34:06;;;;;;;6.47;5.87;;;;;;;10.48;100.00;97728.63;6280303;28;20305;-39
2022/10/24 00:37:08;;;;;;;6.53;5.93;;;;;;;10.45;100.00;97728.03;6280573;28;20696;-39
2022/10/24 00:40:14;;;;;;;6.77;5.20;;;;;;;10.43;100.00;97720.25;6279224;28;20703;-39
2022/10/24 00:43:22;;;;;;;4.80;4.40;;;;;;;10.40;100.00;97719.63;6262144;28;20238;-39
2022/10/24 00:46:24;;;;;;;6.60;5.83;;;;;;;10.41;100.00;97722.16;6279144;28;20776;-39
2022/10/24 00:49:30;;;;;;;5.83;5.33;;;;;;;10.38;100.00;97706.59;6279117;28;20233;-39
2022/10/24 00:52:39;;;;;;;5.10;4.60;;;;;;;10.30;100.00;97708.97;6279864;28;20225;-39
2022/10/24 00:55:42;;;;;;;5.97;4.50;;;;;;;10.25;100.00;97705.88;6279918;28;20300;-39
2022/10/24 00:58:46;;;;;;;4.83;4.30;;;;;;;10.25;100.00;97705.88;6279787;28;20752;-39
2022/10/24 01:01:48;;;;;;;4.90;4.27;;;;;;;10.26;100.00;97704.91;6279911;28;20632;-39
2022/10/24 01:04:53;;;;;;;4.40;4.00;;;;;;;10.24;100.00;97699.75;6279420;28;20231;-40
2022/10/24 01:08:39;;;;;;;4.70;4.00;;;;;;;10.27;100.00;97703.94;6279475;28;20237;-39
2022/10/24 01:11:55;;;;;;;4.50;4.10;;;;;;;10.23;100.00;97707.78;6225342;28;20641;-39
2022/10/24 01:15:03;;;;;;;3.40;3.10;;;;;;;10.24;100.00;97706.81;6279067;28;20260;-39
2022/10/24 01:18:42;;;;;;;4.37;3.97;;;;;;;10.22;100.00;97700.81;6277329;28;20247;-39
2022/10/24 01:22:01;;;;;;;4.53;4.13;;;;;;;10.23;100.00;97707.78;6279513;28;20229;-39
2022/10/24 01:25:15;;;;;;;3.60;3.30;;;;;;;10.25;100.00;97709.34;6278500;28;20262;-39
2022/10/24 01:28:29;;;;;;;4.27;3.90;;;;;;;10.28;100.00;97709.09;6279502;28;20252;-39
2022/10/24 01:31:58;;;;;;;4.50;4.10;;;;;;;10.31;100.00;97721.19;6279516;28;20581;-39
2022/10/24 01:35:08;;;;;;;3.70;3.40;;;;;;;10.32;100.00;97725.53;6234016;28;20385;-39
2022/10/24 01:38:46;;;;;;;5.23;4.73;;;;;;;10.34;100.00;97719.16;6265855;28;20245;-39
2022/10/24 01:41:50;;;;;;;5.03;4.53;;;;;;;10.32;100.00;97725.53;6154172;28;20403;-39
2022/10/24 01:44:56;;;;;;;4.60;4.20;;;;;;;10.35;100.00;97728.75;6154010;28;20621;-39
2022/10/24 01:48:03;;;;;;;4.87;3.90;;;;;;;10.35;100.00;97736.69;6154202;28;20237;-39
2022/10/24 01:51:07;;;;;;;5.00;4.60;;;;;;;10.38;100.00;97743.53;6153825;28;20241;-39
2022/10/24 01:54:10;;;;;;;4.50;4.10;;;;;;;10.37;100.00;97748.91;6154264;28;20245;-39
2022/10/24 01:57:13;;;;;;;4.13;3.83;;;;;;;10.37;100.00;97756.81;6153841;28;20707;-39
2022/10/24 02:00:19;;;;;;;4.30;3.90;;;;;;;10.38;100.00;97754.06;6154224;28;20601;-39
2022/10/24 02:03:28;;;;;;;5.10;4.63;;;;;;;10.40;100.00;97773.22;6153645;28;20259;-39
2022/10/24 02:06:40;;;;;;;6.07;5.47;;;;;;;10.34;100.00;97769.28;6153881;28;20236;-39
2022/10/24 02:09:45;;;;;;;7.53;5.83;;;;;;;10.29;100.00;97787.25;6154141;28;20739;-39
2022/10/24 02:12:53;;;;;;;7.13;6.40;;;;;;;10.26;100.00;97855.25;6154703;28;20237;-39
2022/10/24 02:15:58;;;;;;;8.00;6.03;;;;;;;10.22;100.00;97859.91;6167734;28;20252;-39
2022/10/24 02:19:01;;;;;;;7.97;7.17;;;;;;;10.37;100.00;97860.56;6278280;28;20260;-39
2022/10/24 02:22:52;;;;;;;8.23;7.43;;;;;;;10.49;100.00;97867.50;6277874;28;20224;-39
2022/10/24 02:25:59;;;;;;;9.00;8.10;;;;;;;10.63;100.00;97866.44;6172297;28;20245;-39
2022/10/24 02:29:10;;;;;;;12.70;7.27;;;;;;;10.65;100.00;97843.44;6278503;28;20225;-39
2022/10/24 02:32:21;;;;;;;7.20;6.50;;;;;;;10.64;100.00;97820.63;6277835;28;20237;-39
2022/10/24 02:35:30;;;;;;;7.23;6.53;;;;;;;10.65;100.00;97832.88;6278601;28;20728;-39
2022/10/24 02:38:37;;;;;;;6.80;5.83;;;;;;;10.62;100.00;97833.94;6282904;28;20613;-39
2022/10/24 02:41:41;;;;;;;8.87;7.97;;;;;;;10.62;100.00;97831.31;6265159;28;20315;-39
2022/10/24 02:44:47;;;;;;;8.57;7.67;;;;;;;10.62;100.00;97833.94;6282820;28;20256;-39
2022/10/24 02:47:51;;;;;;;9.67;8.67;;;;;;;10.61;100.00;97850.72;6283630;28;20599;-39
2022/10/24 02:50:53;;;;;;;11.67;9.10;;;;;;;10.57;100.00;97845.81;6287623;28;20230;-39
2022/10/24 02:53:57;;;;;;;9.13;8.17;;;;;;;10.54;100.00;97860.09;6287848;28;20371;-39
2022/10/24 02:57:01;;;;;;;9.20;7.50;;;;;;;10.50;100.00;97844.59;6282693;28;20604;-39
2022/10/24 03:00:04;;;;;;;10.30;8.53;;;;;;;10.43;100.00;97868.00;6282315;28;20228;-39
2022/10/24 03:03:06;;;;;;;10.40;7.03;;;;;;;10.33;100.00;97865.22;6282938;28;20908;-39
2022/10/24 03:06:08;;;;;;;11.07;8.77;;;;;;;10.27;100.00;97873.59;6282165;28;20586;-39
2022/10/24 03:09:10;;;;;;;9.93;8.67;;;;;;;10.20;100.00;97864.47;6282197;28;20206;-39
2022/10/24 03:12:15;;;;;;;9.80;8.80;;;;;;;10.19;100.00;97862.78;6282261;28;20213;-39
2022/10/24 03:15:17;;;;;;;11.47;7.93;;;;;;;10.16;100.00;97856.88;6282406;28;20225;-39
2022/10/24 03:18:19;;;;;;;8.90;7.70;;;;;;;10.11;100.00;97859.84;6282068;28;20320;-39
2022/10/24 03:21:22;;;;;;;12.87;8.07;;;;;;;10.06;100.00;97854.09;6281751;28;20587;-39
2022/10/24 03:24:24;;;;;;;9.27;7.73;;;;;;;10.02;100.00;97855.28;6282326;28;20736;-39
2022/10/24 03:27:45;;;;;;;7.57;6.83;;;;;;;10.00;100.00;97852.75;6281897;28;20632;-39
2022/10/24 03:30:48;;;;;;;7.27;5.97;;;;;;;9.97;100.00;97850.34;6281941;28;20241;-39
2022/10/24 03:33:50;;;;;;;7.00;6.30;;;;;;;9.92;100.00;97835.81;6280771;28;20743;-39
2022/10/24 03:36:52;;;;;;;7.97;5.83;;;;;;;9.91;100.00;97842.06;6281154;28;20245;-39
2022/10/24 03:39:54;;;;;;;5.60;4.87;;;;;;;9.88;100.00;97855.47;6281681;28;20328;-39
2022/10/24 03:42:56;;;;;;;6.17;5.57;;;;;;;9.88;100.00;97842.31;6282178;28;20244;-39
2022/10/24 03:45:58;;;;;;;5.90;5.10;;;;;;;9.88;100.00;97829.94;6281183;28;20247;-39
2022/10/24 03:49:00;;;;;;;5.97;4.70;;;;;;;9.90;100.00;97840.38;6280417;28;20241;-39
2022/10/24 03:52:07;;;;;;;8.90;4.27;;;;;;;9.97;100.00;97846.88;6282872;28;20241;-39
2022/10/24 03:55:10;;;;;;;3.90;3.50;;;;;;;10.05;100.00;97839.22;6281037;28;20289;-39
2022/10/24 03:58:12;;;;;;;4.80;3.90;;;;;;;10.13;100.00;97833.38;6281036;28;20228;-39
2022/10/24 04:01:16;;;;;;;4.17;3.23;;;;;;;10.32;100.00;97839.78;6281658;28;20225;-39
2022/10/24 04:04:19;;;;;;;2.57;2.37;;;;;;;10.52;100.00;97827.69;6280761;28;20330;-40
2022/10/24 04:07:22;;;;;;;5.37;3.20;;;;;;;10.63;100.00;97813.66;6281625;28;20335;-39
2022/10/24 04:10:24;;;;;;;3.53;2.57;;;;;;;10.75;100.00;97819.78;6282413;28;20234;-39
2022/10/24 04:13:26;;;;;;;3.93;2.30;;;;;;;10.84;99.85;97833.09;6280573;28;20231;-39
2022/10/24 04:16:28;;;;;;;3.00;1.97;;;;;;;10.90;99.19;97829.97;6280988;28;20278;-39
2022/10/24 04:19:30;;;;;;;3.60;2.00;;;;;;;-144.22;100.00;60274.75;6280687;28;20588;-39
2022/10/24 04:22:33;;;;;;;8.43;2.57;;;;;;;188.01;100.00;60274.75;6280179;28;20329;-39
2022/10/24 04:25:35;;;;;;;4.00;2.20;;;;;;;-144.22;100.00;60274.75;6270305;28;20710;-39
2022/10/24 04:28:37;;;;;;;4.60;2.60;;;;;;;11.66;91.75;97831.72;6280039;28;20218;-39
2022/10/24 04:31:39;;;;;;;3.33;2.60;;;;;;;11.34;93.42;97826.41;6280552;28;20724;-41
2022/10/24 04:34:41;;;;;;;5.60;2.23;;;;;;;11.13;94.33;97827.31;6280315;28;20230;-39
2022/10/24 04:37:43;;;;;;;5.13;2.43;;;;;;;10.94;95.42;97820.00;6281353;28;20226;-39
2022/10/24 04:40:48;;;;;;;2.53;1.90;;;;;;;10.80;96.36;97820.25;6280436;28;20320;-39
2022/10/24 04:43:51;;;;;;;5.23;2.27;;;;;;;10.78;97.41;97832.75;6280488;28;20268;-39
2022/10/24 04:46:53;;;;;;;6.00;2.33;;;;;;;10.75;97.55;97835.63;6279809;28;20603;-39
2022/10/24 04:49:55;;;;;;;3.27;2.30;;;;;;;10.67;97.86;97823.03;6278811;28;20225;-40
2022/10/24 04:52:57;;;;;;;2.80;2.30;;;;;;;10.62;98.27;97825.19;6279694;28;20243;-39
2022/10/24 04:55:59;;;;;;;3.17;2.13;;;;;;;10.59;98.87;97830.69;6280740;28;20230;-40
2022/10/24 04:59:02;;;;;;;4.10;2.30;;;;;;;10.54;99.12;97831.06;6279255;28;20226;-39
2022/10/24 05:02:04;;;;;;;5.30;2.00;;;;;;;10.88;98.04;97831.88;6279563;28;20236;-39
2022/10/24 05:05:06;;;;;;;6.33;2.47;;;;;;;10.78;97.89;97836.22;6280342;28;20230;-39
2022/10/24 05:08:08;;;;;;;2.30;2.10;;;;;;;10.66;98.62;97831.91;6280772;28;20336;-39
2022/10/24 05:11:10;;;;;;;5.47;2.57;;;;;;;10.61;99.44;97845.44;6280013;28;20233;-39
2022/10/24 05:14:13;;;;;;;2.70;1.93;;;;;;;10.49;99.64;97851.66;6279691;28;20368;-39
2022/10/24 05:17:15;;;;;;;2.60;2.10;;;;;;;10.46;100.00;97851.94;6280190;28;20240;-39
2022/10/24 05:20:17;;;;;;;4.43;1.80;;;;;;;10.41;100.00;97840.03;6279886;28;20814;-39
2022/10/24 05:23:19;;;;;;;3.07;1.70;;;;;;;10.35;100.00;97851.91;6280572;28;20229;-39
2022/10/24 05:26:21;;;;;;;2.77;1.97;;;;;;;10.33;100.00;97859.09;6278952;28;20723;-39
2022/10/24 05:29:24;;;;;;;6.93;2.20;;;;;;;10.31;100.00;97859.22;6278290;28;20391;-39
2022/10/24 05:32:26;;;;;;;3.07;2.13;;;;;;;10.42;100.00;97850.47;6260984;28;20240;-39
2022/10/24 05:35:28;;;;;;;7.80;2.10;;;;;;;10.54;100.00;97851.34;6268713;28;20269;-39
2022/10/24 05:38:30;;;;;;;4.17;2.40;;;;;;;10.63;100.00;97851.47;6262208;28;20234;-39
2022/10/24 05:41:32;;;;;;;6.10;2.13;;;;;;;10.73;100.00;97855.06;6278874;28;20232;-39
2022/10/24 05:44:34;;;;;;;5.33;1.97;;;;;;;10.87;100.00;97855.78;6279708;28;20218;-39
2022/10/24 05:47:36;;;;;;;3.03;2.33;;;;;;;10.92;100.00;97858.88;6277999;28;20233;-39
2022/10/24 05:50:38;;;;;;;3.50;2.33;;;;;;;10.97;100.00;97849.66;6278276;28;20240;-39
2022/10/24 05:53:40;;;;;;;5.20;2.33;;;;;;;10.98;99.93;97851.31;6277823;28;20777;-39
2022/10/24 05:56:42;;;;;;;5.47;2.20;;;;;;;11.00;99.96;97856.47;6279123;28;20234;-39
2022/10/24 05:59:45;;;;;;;4.53;2.10;;;;;;;11.02;100.00;97860.69;6278157;28;20287;-39
2022/10/24 06:02:47;;;;;;;4.03;1.90;;;;;;;11.01;100.00;97858.16;6277958;28;20225;-39
2022/10/24 06:05:49;;;;;;;2.87;2.27;;;;;;;11.01;100.00;97866.09;6277837;28;20689;-39
2022/10/24 06:08:51;;;;;;;7.27;5.90;;;;;;;10.93;99.95;97876.41;6279695;28;20597;-39
2022/10/24 06:11:53;;;;;;;8.07;6.87;;;;;;;10.85;99.49;97879.66;6281377;28;20332;-41
2022/10/24 06:14:57;;;;;;;7.53;6.17;;;;;;;10.81;99.12;97882.66;6275133;28;20228;-39
2022/10/24 06:17:59;;;;;;;9.53;6.50;;;;;;;10.75;98.89;97883.97;6283271;28;20268;-39
2022/10/24 06:21:03;;;;;;;7.20;5.43;;;;;;;10.70;98.78;97889.59;6282476;28;20773;-39
2022/10/24 06:24:06;;;;;;;5.93;5.33;;;;;;;10.67;98.67;97894.31;6282742;28;20244;-39
2022/10/24 06:27:08;;;;;;;9.10;6.07;;;;;;;10.64;98.56;97898.00;6263443;28;20233;-39
2022/10/24 06:30:10;;;;;;;8.53;6.60;;;;;;;10.68;98.49;97909.19;6282747;28;20770;-39
2022/10/24 06:33:12;;;;;;;8.07;6.40;;;;;;;10.71;98.15;97911.56;6281752;28;20257;-40
2022/10/24 06:36:14;;;;;;;7.17;5.83;;;;;;;10.73;97.94;97912.28;6280643;28;20209;-39
2022/10/24 06:39:16;;;;;;;7.90;6.03;;;;;;;10.77;97.63;97919.03;6283276;28;20245;-39
2022/10/24 06:42:18;;;;;;;10.00;6.60;;;;;;;10.82;97.60;97914.22;6264855;28;20662;-39
2022/10/24 06:45:22;;;;;;;8.57;6.77;;;;;;;10.92;97.46;97907.25;6282194;28;20253;-40
2022/10/24 06:48:24;;;;;;;7.47;5.87;;;;;;;11.04;97.02;97913.38;6281459;28;20234;-39
2022/10/24 06:51:26;;;;;;;5.53;5.00;;;;;;;11.18;96.55;97922.88;6282697;28;20226;-39
2022/10/24 06:54:29;;;;;;;5.93;5.33;;;;;;;11.32;96.11;97920.81;6281968;28;20751;-39
2022/10/24 06:57:31;;;;;;;6.60;5.90;;;;;;;11.44;95.59;97919.00;6282685;28;20316;-39
2022/10/24 07:00:34;;;;;;;5.40;4.90;;;;;;;11.55;95.24;97920.78;6281689;28;20222;-39
2022/10/24 07:03:37;;;;;;;5.27;4.60;;;;;;;11.66;94.79;97921.59;6282038;28;20234;-39
2022/10/24 07:06:39;;;;;;;5.67;4.63;;;;;;;11.77;94.45;97918.13;6282132;28;20628;-41
2022/10/24 07:09:42;;;;;;;6.40;4.77;;;;;;;11.81;100.00;60274.75;6282616;28;20599;-41
2022/10/24 07:12:44;;;;;;;7.03;4.87;;;;;;;11.84;100.00;60274.75;6282332;28;20248;-41
2022/10/24 07:15:46;;;;;;;8.13;5.20;;;;;;;-144.22;100.00;60274.75;6281369;28;20238;-41
2022/10/24 07:18:49;;;;;;;5.50;4.57;;;;;;;-144.22;100.00;60274.75;6280904;28;20442;-41
2022/10/24 07:21:51;;;;;;;5.07;4.57;;;;;;;11.80;100.00;60274.75;6281284;28;20740;-41
2022/10/24 07:24:54;;;;;;;5.50;4.37;;;;;;;-144.22;100.00;60274.75;6281238;28;20603;-41
2022/10/24 07:27:56;;;;;;;4.90;4.03;;;;;;;-144.22;100.00;60274.75;6281747;28;20693;-41
2022/10/24 07:30:59;;;;;;;7.20;5.97;;;;;;;-144.22;100.00;60274.75;6280542;28;20325;-41
2022/10/24 07:34:03;;;;;;;6.63;5.83;;;;;;;-144.22;100.00;60274.75;6281239;28;20241;-41
2022/10/24 07:37:05;;;;;;;6.93;6.17;;;;;;;-144.22;100.00;60274.75;6281014;28;20725;-41
2022/10/24 07:40:08;;;;;;;7.10;5.90;;;;;;;-144.22;100.00;60274.75;6280981;28;20230;-41
2022/10/24 07:43:10;;;;;;;7.90;6.23;;;;;;;12.47;100.00;60274.75;6280753;28;20234;-41
2022/10/24 07:46:14;;;;;;;7.27;5.87;;;;;;;-144.22;100.00;60274.75;6280137;28;20230;-41
2022/10/24 07:49:16;;;;;;;6.47;5.47;;;;;;;12.45;100.00;60274.75;6280932;28;20234;-41
2022/10/24 07:52:18;;;;;;;7.73;5.60;;;;;;;12.49;100.00;79418.66;6280713;28;20237;-43
2022/10/24 07:55:20;;;;;;;6.77;4.87;;;;;;;-144.22;100.00;60274.75;6281828;28;20723;-42
2022/10/24 07:58:22;;;;;;;6.07;4.93;;;;;;;12.66;100.00;60274.75;6280532;28;20226;-41
2022/10/24 08:01:25;;;;;;;5.00;4.60;;;;;;;188.01;100.00;60274.75;6280405;28;20840;-41
2022/10/24 08:04:29;;;;;;;5.23;4.17;;;;;;;-144.22;100.00;60274.75;6281553;28;20321;-41
2022/10/24 08:07:35;;;;;;;6.33;4.67;;;;;;;13.04;100.00;60274.75;6280088;28;20260;-41
2022/10/24 08:10:37;;;;;;;5.23;4.23;;;;;;;-144.22;100.00;60274.75;6280282;28;20235;-41
2022/10/24 08:13:40;;;;;;;5.93;4.47;;;;;;;-144.22;100.00;60274.75;6280459;28;20612;-41
2022/10/24 08:16:42;;;;;;;8.07;6.70;;;;;;;-144.22;100.00;60274.75;6285149;28;20599;-41
2022/10/24 08:19:44;;;;;;;5.73;5.13;;;;;;;-144.22;100.00;60274.75;6284946;28;20307;-41
2022/10/24 08:22:47;;;;;;;6.83;6.07;;;;;;;-144.22;100.00;60274.75;6285400;28;20701;-42
2022/10/24 08:25:49;;;;;;;7.10;5.60;;;;;;;-144.22;100.00;60274.75;6280019;28;20709;-41
2022/10/24 08:28:52;;;;;;;5.57;5.00;;;;;;;188.01;100.00;60274.75;6279546;28;20701;-41
2022/10/24 08:31:55;;;;;;;5.13;4.53;;;;;;;14.50;100.00;60274.75;6262082;28;20234;-42
2022/10/24 08:34:57;;;;;;;4.70;4.00;;;;;;;-144.22;100.00;60274.75;6279712;28;20233;-42
2022/10/24 08:38:00;;;;;;;5.00;4.20;;;;;;;-144.22;100.00;60274.75;6279324;28;20253;-41
2022/10/24 08:41:02;;;;;;;4.80;4.03;;;;;;;-144.22;100.00;60274.75;6280398;28;20321;-41
2022/10/24 08:44:41;;;;;;;6.80;4.97;;;;;;;-144.22;100.00;60274.75;6279114;28;20215;-42
2022/10/24 08:47:52;;;;;;;4.90;4.50;;;;;;;-144.22;100.00;60274.75;6154386;28;20242;-42
2022/10/24 08:51:04;;;;;;;5.60;5.00;;;;;;;-144.22;100.00;60274.75;6154908;28;20394;-40
2022/10/24 08:54:12;;;;;;;6.57;5.50;;;;;;;-144.22;100.00;60274.75;6154173;28;20218;-39
2022/10/24 08:57:29;;;;;;;7.60;5.93;;;;;;;-144.22;100.00;60274.75;6154753;28;20237;-40
2022/10/24 09:00:38;;;;;;;5.80;5.20;;;;;;;-144.22;100.00;60274.75;6154059;28;20313;-40
2022/10/24 09:03:43;;;;;;;8.60;5.53;;;;;;;-144.22;100.00;60274.75;6161389;28;20486;-40
2022/10/24 09:07:02;;;;;;;6.67;6.03;;;;;;;-144.22;100.00;60274.75;6141683;28;20293;-40
2022/10/24 09:10:13;;;;;;;6.93;6.13;;;;;;;-144.22;100.00;60274.75;6142487;28;20250;-40
2022/10/24 09:13:16;;;;;;;6.10;5.47;;;;;;;-144.22;100.00;60274.75;6141758;28;20653;-40
2022/10/24 09:16:21;;;;;;;8.50;4.70;;;;;;;-144.22;100.00;60274.75;6142617;28;20870;-40
2022/10/24 09:19:26;;;;;;;7.40;5.83;;;;;;;-144.22;100.00;60274.75;6141687;28;20238;-40
2022/10/24 09:22:32;;;;;;;6.63;5.23;;;;;;;-144.22;100.00;60274.75;6141547;28;20245;-40
2022/10/24 09:25:37;;;;;;;6.40;5.40;;;;;;;-144.22;100.00;60274.75;6244982;28;20826;-39
2022/10/24 09:28:39;;;;;;;5.83;5.23;;;;;;;15.15;100.00;60274.75;6266289;28;20245;-41
2022/10/24 09:31:41;;;;;;;5.30;4.80;;;;;;;-144.22;100.00;60274.75;6266866;28;20238;-40
2022/10/24 09:34:43;;;;;;;5.30;4.80;;;;;;;-144.22;100.00;60274.75;6267466;28;20877;-40
2022/10/24 09:37:54;;;;;;;6.60;5.23;;;;;;;-144.22;100.00;60274.75;6263695;28;20234;-40
2022/10/24 09:40:59;;;;;;;6.40;5.43;;;;;;;-144.22;100.00;60274.75;6262754;28;20745;-40
2022/10/24 09:44:03;;;;;;;7.30;4.43;;;;;;;-144.22;100.00;60274.75;6266348;28;20273;-40
2022/10/24 09:47:18;;;;;;;6.00;5.10;;;;;;;-144.22;100.00;60274.75;6264357;28;20705;-40
2022/10/24 09:50:22;;;;;;;5.90;4.67;;;;;;;-144.22;100.00;60274.75;6266856;28;20617;-40
2022/10/24 09:53:31;;;;;;;6.13;5.10;;;;;;;-144.22;100.00;60274.75;6266216;28;20238;-40
2022/10/24 09:56:37;;;;;;;6.20;5.40;;;;;;;-144.22;100.00;60274.75;6265694;28;20484;-40
2022/10/24 09:59:46;;;;;;;5.63;4.83;;;;;;;-144.22;100.00;60274.75;6264345;28;20640;-40
2022/10/24 10:03:00;;;;;;;5.87;4.60;;;;;;;15.37;100.00;60274.75;6265722;28;21241;-39
2022/10/24 10:06:14;;;;;;;5.63;4.53;;;;;;;-144.22;100.00;60274.75;6264790;28;20244;-40
2022/10/24 10:09:33;;;;;;;5.50;4.60;;;;;;;-144.22;100.00;60274.75;6267044;28;20241;-40
2022/10/24 10:12:39;;;;;;;6.47;4.13;;;;;;;15.91;100.00;60274.75;6266085;28;20241;-40
2022/10/24 10:15:50;;;;;;;7.33;4.73;;;;;;;-144.22;100.00;60274.75;6265968;28;20245;-40
2022/10/24 10:19:12;;;;;;;5.73;4.97;;;;;;;16.38;100.00;60274.75;6266185;28;20617;-40
2022/10/24 10:22:32;;;;;;;6.47;5.07;;;;;;;-144.22;100.00;60274.75;6250161;28;20246;-40
2022/10/24 10:25:34;;;;;;;5.20;4.70;;;;;;;16.46;100.00;60274.75;6265698;28;20293;-40
2022/10/24 10:28:52;;;;;;;5.63;5.07;;;;;;;16.55;100.00;60274.75;6265708;28;20242;-41
2022/10/24 10:32:21;;;;;;;6.03;4.77;;;;;;;-144.22;100.00;60274.75;6267032;28;20266;-40
2022/10/24 10:35:35;;;;;;;5.20;4.70;;;;;;;16.73;100.00;60274.75;6265596;28;20739;-41
2022/10/24 10:39:06;;;;;;;5.60;4.80;;;;;;;-144.22;100.00;60274.75;6246616;28;20238;-42
2022/10/24 10:42:48;;;;;;;6.03;4.50;;;;;;;-144.22;100.00;60274.75;6239051;28;20239;-40
2022/10/24 10:46:03;;;;;;;5.33;4.50;;;;;;;-144.22;100.00;60274.75;6237991;28;20235;-41
2022/10/24 10:49:26;;;;;;;4.63;3.53;;;;;;;-144.22;100.00;60274.75;6238690;28;20235;-40
2022/10/24 10:52:37;;;;;;;3.43;3.13;;;;;;;-144.22;100.00;60274.75;6238477;28;20264;-40
2022/10/24 10:55:50;;;;;;;3.97;3.30;;;;;;;-144.22;100.00;60274.75;6239352;28;20239;-40
2022/10/24 10:59:13;;;;;;;4.80;3.70;;;;;;;-144.22;100.00;60274.75;6224915;28;20841;-40
2022/10/24 11:02:37;;;;;;;3.70;3.40;;;;;;;-144.22;100.00;60274.75;6242626;28;20253;-40
2022/10/24 11:06:18;;;;;;;4.73;3.40;;;;;;;16.68;100.00;60274.75;6243340;28;20240;-40
2022/10/24 11:09:36;;;;;;;5.17;3.37;;;;;;;-144.22;100.00;60274.75;6291563;28;20238;-41
2022/10/24 11:12:41;;;;;;;5.30;3.70;;;;;;;-144.22;100.00;60274.75;6292895;28;20725;-40
2022/10/24 11:15:47;;;;;;;4.83;3.63;;;;;;;16.92;100.00;60274.75;6292858;28;20234;-39
2022/10/24 11:18:51;;;;;;;5.20;3.17;;;;;;;-144.22;100.00;60274.75;6292895;28;20720;-39
2022/10/24 11:21:57;;;;;;;4.27;3.87;;;;;;;17.69;100.00;60274.75;6292459;28;20237;-40
2022/10/24 11:25:07;;;;;;;4.70;3.80;;;;;;;-144.22;100.00;60274.75;6293177;28;20747;-40
2022/10/24 11:28:43;;;;;;;6.90;3.37;;;;;;;-144.22;100.00;60274.75;6292721;28;20249;-41
2022/10/24 11:32:01;;;;;;;3.70;3.30;;;;;;;-144.22;100.00;60274.75;6291492;28;20748;-40
2022/10/24 11:35:36;;;;;;;6.17;3.33;;;;;;;-144.22;100.00;60274.75;6244923;28;20733;-40
2022/10/24 11:38:52;;;;;;;4.53;3.27;;;;;;;-144.22;100.00;60274.75;6286077;28;20234;-41
2022/10/24 11:42:09;;;;;;;5.70;3.10;;;;;;;-144.22;100.00;60274.75;6268338;28;20550;-41
2022/10/24 11:45:17;;;;;;;3.43;3.00;;;;;;;-144.22;100.00;60274.75;6236046;28;20590;-40
2022/10/24 11:48:42;;;;;;;3.97;3.13;;;;;;;-144.22;100.00;60274.75;6281461;28;20250;-40
2022/10/24 11:52:08;;;;;;;3.90;3.17;;;;;;;-144.22;100.00;60274.75;6289999;28;20222;-41
2022/10/24 11:55:37;;;;;;;6.57;3.10;;;;;;;20.92;100.00;60274.75;6269381;28;20242;-39
2022/10/24 11:58:56;;;;;;;3.57;2.93;;;;;;;-144.22;100.00;60274.75;6279091;28;20242;-40
2022/10/24 12:02:12;;;;;;;4.33;2.90;;;;;;;-144.22;100.00;60274.75;6261235;28;20230;-40
2022/10/24 12:05:42;;;;;;;4.27;3.23;;;;;;;20.73;100.00;60274.75;6280378;28;20226;-41
2022/10/24 12:09:10;;;;;;;7.70;3.17;;;;;;;-144.22;100.00;60274.75;6278743;28;20321;-41
2022/10/24 12:12:50;;;;;;;6.07;2.77;;;;;;;-144.22;100.00;60274.75;6269366;28;20772;-40
2022/10/24 12:15:55;;;;;;;3.57;2.60;;;;;;;-144.22;100.00;60274.75;6278852;28;20646;-41
2022/10/24 12:19:02;;;;;;;3.03;2.40;;;;;;;-144.22;100.00;60274.75;6279659;28;20304;-40
2022/10/24 12:22:05;;;;;;;5.47;2.67;;;;;;;20.38;100.00;60274.75;6268318;28;20241;-40
2022/10/24 12:25:18;;;;;;;5.27;2.60;;;;;;;20.18;100.00;60274.75;6279901;28;20320;-40
2022/10/24 12:28:24;;;;;;;6.00;3.20;;;;;;;-144.22;100.00;60274.75;6280144;28;20261;-40
2022/10/24 12:31:31;;;;;;;5.87;2.80;;;;;;;-144.22;100.00;60274.75;6278834;28;20230;-42
2022/10/24 12:34:42;;;;;;;3.47;2.63;;;;;;;-144.22;100.00;60274.75;6278818;28;20233;-41
2022/10/24 12:37:50;;;;;;;3.70;3.07;;;;;;;-144.22;100.00;60274.75;6279102;28;20325;-40
2022/10/24 12:40:57;;;;;;;3.33;3.03;;;;;;;19.41;100.00;60274.75;6292488;28;20229;-41
2022/10/24 12:44:33;;;;;;;6.17;3.53;;;;;;;-144.22;100.00;60274.75;6280023;28;20235;-40
2022/10/24 12:47:38;;;;;;;3.93;3.17;;;;;;;-144.22;100.00;60274.75;6279128;28;20337;-42
2022/10/24 12:50:52;;;;;;;4.33;3.17;;;;;;;-144.22;100.00;60274.75;6278190;28;20235;-41
2022/10/24 12:54:02;;;;;;;5.73;3.57;;;;;;;20.20;100.00;60274.75;6281519;28;20300;-41
2022/10/24 12:57:04;;;;;;;4.33;3.20;;;;;;;-144.22;100.00;60274.75;6278629;28;20231;-40
2022/10/24 13:00:52;;;;;;;4.27;3.30;;;;;;;20.18;100.00;60274.75;6278307;28;20293;-40
2022/10/24 13:04:14;;;;;;;7.70;3.70;;;;;;;-144.22;100.00;60274.75;6170047;28;20321;-40
2022/10/24 13:07:44;;;;;;;4.40;4.00;;;;;;;20.26;100.00;60274.75;6177248;28;20611;-40
2022/10/24 13:11:07;;;;;;;5.73;4.17;;;;;;;-144.22;100.00;60274.75;6177110;28;20721;-40
2022/10/24 13:14:24;;;;;;;7.13;4.90;;;;;;;-144.22;100.00;60274.75;6177821;28;20292;-40
2022/10/24 13:18:03;;;;;;;5.70;4.10;;;;;;;-144.22;100.00;60274.75;6176722;28;20241;-40
2022/10/24 13:21:44;;;;;;;4.60;3.97;;;;;;;-144.22;100.00;60274.75;6152877;28;20317;-40
2022/10/24 13:24:47;;;;;;;9.80;5.70;;;;;;;-144.22;100.00;60274.75;6169702;28;20240;-40
2022/10/24 13:28:23;;;;;;;5.83;4.70;;;;;;;-144.22;100.00;60274.75;6175245;28;20255;-41
2022/10/24 13:31:25;;;;;;;6.50;4.57;;;;;;;-144.22;100.00;60274.75;6153488;28;20237;-40
2022/10/24 13:34:52;;;;;;;5.77;4.37;;;;;;;19.98;100.00;60274.75;6165678;28;20769;-40
2022/10/24 13:37:56;;;;;;;5.33;4.30;;;;;;;-144.22;100.00;60274.75;6237413;28;20826;-39
2022/10/24 13:41:03;;;;;;;5.33;4.53;;;;;;;-144.22;100.00;60274.75;6279238;28;20234;-40
2022/10/24 13:44:22;;;;;;;6.73;4.77;;;;;;;-144.22;100.00;60274.75;6274280;28;20226;-41
2022/10/24 13:47:40;;;;;;;5.53;4.70;;;;;;;-144.22;100.00;60274.75;6278097;28;20222;-40
2022/10/24 13:50:52;;;;;;;8.07;6.40;;;;;;;-144.22;100.00;60274.75;6279161;28;20635;-40
2022/10/24 13:54:08;;;;;;;8.23;5.87;;;;;;;-144.22;100.00;60274.75;6278692;28;20713;-40
2022/10/24 13:57:23;;;;;;;8.40;5.47;;;;;;;-144.22;100.00;60274.75;6278087;28;20223;-40
2022/10/24 14:00:29;;;;;;;7.47;5.77;;;;;;;18.13;100.00;60274.75;6277376;28;20717;-40
2022/10/24 14:03:34;;;;;;;9.13;5.57;;;;;;;-144.22;100.00;60274.75;6278639;28;20325;-40
2022/10/24 14:06:36;;;;;;;6.13;4.93;;;;;;;-144.22;100.00;60274.75;6277258;28;20603;-40
2022/10/24 14:09:42;;;;;;;8.40;5.40;;;;;;;17.86;100.00;60274.75;6276711;28;20234;-40
2022/10/24 14:12:45;;;;;;;6.13;4.60;;;;;;;-144.22;100.00;60274.75;6269493;28;20584;-42
2022/10/24 14:15:52;;;;;;;5.77;4.57;;;;;;;17.76;100.00;60274.75;6277158;28;20226;-42
2022/10/24 14:19:23;;;;;;;6.73;5.37;;;;;;;-144.22;100.00;60274.75;6277733;28;20237;-40
2022/10/24 14:22:39;;;;;;;7.97;4.73;;;;;;;17.58;100.00;60274.75;6265199;28;20628;-41
2022/10/24 14:25:41;;;;;;;10.50;7.70;;;;;;;-144.22;100.00;60274.75;6281675;28;20728;-41
2022/10/24 14:28:52;;;;;;;10.93;8.27;;;;;;;-144.22;100.00;60274.75;6281395;28;20230;-40